Time;durP1;ratioP1;P1;durP2;ratioP2;P2;SDS_P1;SDS_P2;PMS_P1;PMS_P2;Temp;Humidity;BMP_temperature;BMP_pressure;BME280_temperature;BME280_humidity;BME280_pressure;Samples;Min_cycle;Max_cycle;Signal;HPM_P1;HPM_P2
2019/12/30 00:00:01;;;;;;;26.3;14.45;;;;;;;-4.71;85.68652;97022.24;;;;
2019/12/30 00:01:02;;;;;;;26.3;14.45;;;;;;;-4.71;85.68652;97022.24;;;;
2019/12/30 00:02:06;;;;;;;26.3;14.45;;;;;;;-4.71;85.68652;97022.24;;;;
2019/12/30 00:03:07;;;;;;;26.3;14.45;;;;;;;-4.71;85.68652;97022.24;;;;
2019/12/30 00:04:07;;;;;;;26.3;14.45;;;;;;;-4.71;85.68652;97022.24;;;;
2019/12/30 00:05:08;;;;;;;24.75;14;;;;;;;-4.74;85.72266;97022.91;;;;
2019/12/30 00:06:09;;;;;;;24.75;14;;;;;;;-4.74;85.72266;97022.91;;;;
2019/12/30 00:07:09;;;;;;;24.75;14;;;;;;;-4.74;85.72266;97022.91;;;;
2019/12/30 00:08:10;;;;;;;24.75;14;;;;;;;-4.74;85.72266;97022.91;;;;
2019/12/30 00:09:10;;;;;;;24.75;14;;;;;;;-4.74;85.72266;97022.91;;;;
2019/12/30 00:10:11;;;;;;;24.75;14;;;;;;;-4.74;85.72266;97022.91;;;;
2019/12/30 00:11:12;;;;;;;24.75;14;;;;;;;-4.74;85.72266;97022.91;;;;
2019/12/30 00:12:12;;;;;;;24.75;14;;;;;;;-4.74;85.72266;97022.91;;;;
2019/12/30 00:13:13;;;;;;;24.75;14;;;;;;;-4.74;85.72266;97022.91;;;;
2019/12/30 00:14:13;;;;;;;24.75;14;;;;;;;-4.74;85.72266;97022.91;;;;
2019/12/30 00:15:13;;;;;;;24.75;14;;;;;;;-4.74;85.72266;97022.91;;;;
2019/12/30 00:16:14;;;;;;;29.55;15.45;;;;;;;-4.72;85.89258;97024.08;;;;
2019/12/30 00:17:15;;;;;;;29.55;15.45;;;;;;;-4.72;85.89258;97024.08;;;;
2019/12/30 00:18:15;;;;;;;29.55;15.45;;;;;;;-4.72;85.89258;97024.08;;;;
2019/12/30 00:19:16;;;;;;;29.55;15.45;;;;;;;-4.72;85.89258;97024.08;;;;
2019/12/30 00:20:16;;;;;;;29.55;15.45;;;;;;;-4.72;85.89258;97024.08;;;;
2019/12/30 00:21:16;;;;;;;29.55;15.45;;;;;;;-4.72;85.89258;97024.08;;;;
2019/12/30 00:22:17;;;;;;;29.55;15.45;;;;;;;-4.72;85.89258;97024.08;;;;
2019/12/30 00:23:17;;;;;;;29.55;15.45;;;;;;;-4.72;85.89258;97024.08;;;;
2019/12/30 00:24:18;;;;;;;29.55;15.45;;;;;;;-4.72;85.89258;97024.08;;;;
2019/12/30 00:25:18;;;;;;;29.55;15.45;;;;;;;-4.72;85.89258;97024.08;;;;
2019/12/30 00:26:19;;;;;;;25.35;14.15;;;;;;;-4.74;85.91797;97017.18;;;;
2019/12/30 00:27:19;;;;;;;25.35;14.15;;;;;;;-4.74;85.91797;97017.18;;;;
2019/12/30 00:28:20;;;;;;;25.35;14.15;;;;;;;-4.74;85.91797;97017.18;;;;
2019/12/30 00:29:20;;;;;;;25.35;14.15;;;;;;;-4.74;85.91797;97017.18;;;;
2019/12/30 00:30:21;;;;;;;25.35;14.15;;;;;;;-4.74;85.91797;97017.18;;;;
2019/12/30 00:31:21;;;;;;;25.35;14.15;;;;;;;-4.74;85.91797;97017.18;;;;
2019/12/30 00:32:22;;;;;;;25.35;14.15;;;;;;;-4.74;85.91797;97017.18;;;;
2019/12/30 00:33:22;;;;;;;25.35;14.15;;;;;;;-4.74;85.91797;97017.18;;;;
2019/12/30 00:34:23;;;;;;;25.35;14.15;;;;;;;-4.74;85.91797;97017.18;;;;
2019/12/30 00:35:23;;;;;;;25.35;14.15;;;;;;;-4.74;85.91797;97017.18;;;;
2019/12/30 00:36:24;;;;;;;25.35;14.15;;;;;;;-4.74;85.91797;97017.18;;;;
2019/12/30 00:37:24;;;;;;;26.95;14.95;;;;;;;-4.82;86.09766;97018.56;;;;
2019/12/30 00:38:25;;;;;;;26.95;14.95;;;;;;;-4.82;86.09766;97018.56;;;;
2019/12/30 00:39:25;;;;;;;26.95;14.95;;;;;;;-4.82;86.09766;97018.56;;;;
2019/12/30 00:40:26;;;;;;;26.95;14.95;;;;;;;-4.82;86.09766;97018.56;;;;
2019/12/30 00:41:26;;;;;;;26.95;14.95;;;;;;;-4.82;86.09766;97018.56;;;;
2019/12/30 00:42:27;;;;;;;26.95;14.95;;;;;;;-4.82;86.09766;97018.56;;;;
2019/12/30 00:43:27;;;;;;;26.95;14.95;;;;;;;-4.82;86.09766;97018.56;;;;
2019/12/30 00:44:28;;;;;;;26.95;14.95;;;;;;;-4.82;86.09766;97018.56;;;;
2019/12/30 00:45:28;;;;;;;26.95;14.95;;;;;;;-4.82;86.09766;97018.56;;;;
2019/12/30 00:46:29;;;;;;;26.95;14.95;;;;;;;-4.82;86.09766;97018.56;;;;
2019/12/30 00:47:29;;;;;;;31.55;15.2;;;;;;;-4.87;86.16797;97011.02;;;;
2019/12/30 00:48:30;;;;;;;31.55;15.2;;;;;;;-4.87;86.16797;97011.02;;;;
2019/12/30 00:49:30;;;;;;;31.55;15.2;;;;;;;-4.87;86.16797;97011.02;;;;
2019/12/30 00:50:30;;;;;;;31.55;15.2;;;;;;;-4.87;86.16797;97011.02;;;;
2019/12/30 00:51:31;;;;;;;31.55;15.2;;;;;;;-4.87;86.16797;97011.02;;;;
2019/12/30 00:52:31;;;;;;;31.55;15.2;;;;;;;-4.87;86.16797;97011.02;;;;
2019/12/30 00:53:32;;;;;;;31.55;15.2;;;;;;;-4.87;86.16797;97011.02;;;;
2019/12/30 00:54:32;;;;;;;31.55;15.2;;;;;;;-4.87;86.16797;97011.02;;;;
2019/12/30 00:55:33;;;;;;;31.55;15.2;;;;;;;-4.87;86.16797;97011.02;;;;
2019/12/30 00:56:33;;;;;;;31.55;15.2;;;;;;;-4.87;86.16797;97011.02;;;;
2019/12/30 00:57:34;;;;;;;31.55;15.2;;;;;;;-4.87;86.16797;97011.02;;;;
2019/12/30 00:58:34;;;;;;;29.7;14.6;;;;;;;-4.93;86.28027;97020.62;;;;
2019/12/30 00:59:35;;;;;;;29.7;14.6;;;;;;;-4.93;86.28027;97020.62;;;;
2019/12/30 01:00:36;;;;;;;29.7;14.6;;;;;;;-4.93;86.28027;97020.62;;;;
2019/12/30 01:01:36;;;;;;;29.7;14.6;;;;;;;-4.93;86.28027;97020.62;;;;
2019/12/30 01:03:42;;;;;;;29.7;14.6;;;;;;;-4.93;86.28027;97020.62;;;;
2019/12/30 01:04:43;;;;;;;29.7;14.6;;;;;;;-4.93;86.28027;97020.62;;;;
2019/12/30 01:05:47;;;;;;;29.7;14.6;;;;;;;-4.93;86.28027;97020.62;;;;
2019/12/30 01:06:51;;;;;;;29.7;14.6;;;;;;;-4.93;86.28027;97020.62;;;;
2019/12/30 01:07:52;;;;;;;29.7;14.6;;;;;;;-4.93;86.28027;97020.62;;;;
2019/12/30 01:08:54;;;;;;;26.6;14.7;;;;;;;-5;86.36914;97023.71;;;;
2019/12/30 01:09:54;;;;;;;26.6;14.7;;;;;;;-5;86.36914;97023.71;;;;
2019/12/30 01:10:55;;;;;;;26.6;14.7;;;;;;;-5;86.36914;97023.71;;;;
2019/12/30 01:11:55;;;;;;;26.6;14.7;;;;;;;-5;86.36914;97023.71;;;;
2019/12/30 01:12:57;;;;;;;26.6;14.7;;;;;;;-5;86.36914;97023.71;;;;
2019/12/30 01:13:57;;;;;;;26.6;14.7;;;;;;;-5;86.36914;97023.71;;;;
2019/12/30 01:14:58;;;;;;;26.6;14.7;;;;;;;-5;86.36914;97023.71;;;;
2019/12/30 01:15:58;;;;;;;26.6;14.7;;;;;;;-5;86.36914;97023.71;;;;
2019/12/30 01:16:59;;;;;;;26.6;14.7;;;;;;;-5;86.36914;97023.71;;;;
2019/12/30 01:18:00;;;;;;;26.6;14.7;;;;;;;-5;86.36914;97023.71;;;;
2019/12/30 01:19:00;;;;;;;26.6;14.65;;;;;;;-5.05;86.48145;97011.78;;;;
2019/12/30 01:20:01;;;;;;;26.6;14.65;;;;;;;-5.05;86.48145;97011.78;;;;
2019/12/30 01:21:05;;;;;;;26.6;14.65;;;;;;;-5.05;86.48145;97011.78;;;;
2019/12/30 01:22:06;;;;;;;26.6;14.65;;;;;;;-5.05;86.48145;97011.78;;;;
2019/12/30 01:23:07;;;;;;;26.6;14.65;;;;;;;-5.05;86.48145;97011.78;;;;
2019/12/30 01:24:07;;;;;;;26.6;14.65;;;;;;;-5.05;86.48145;97011.78;;;;
2019/12/30 01:25:08;;;;;;;26.6;14.65;;;;;;;-5.05;86.48145;97011.78;;;;
2019/12/30 01:26:08;;;;;;;26.6;14.65;;;;;;;-5.05;86.48145;97011.78;;;;
2019/12/30 01:27:09;;;;;;;26.6;14.65;;;;;;;-5.05;86.48145;97011.78;;;;
2019/12/30 01:28:13;;;;;;;26.6;14.65;;;;;;;-5.05;86.48145;97011.78;;;;
2019/12/30 01:29:14;;;;;;;26.6;14.65;;;;;;;-5.05;86.48145;97011.78;;;;
2019/12/30 01:33:16;;;;;;;26.3;14.2;;;;;;;-5;86.43945;97012.36;;;;
2019/12/30 01:34:16;;;;;;;26.3;14.2;;;;;;;-5;86.43945;97012.36;;;;
2019/12/30 01:35:17;;;;;;;26.3;14.2;;;;;;;-5;86.43945;97012.36;;;;
2019/12/30 01:36:20;;;;;;;26.3;14.2;;;;;;;-5;86.43945;97012.36;;;;
2019/12/30 01:37:20;;;;;;;26.3;14.2;;;;;;;-5;86.43945;97012.36;;;;
2019/12/30 01:38:21;;;;;;;26.3;14.2;;;;;;;-5;86.43945;97012.36;;;;
2019/12/30 01:39:22;;;;;;;26.3;14.2;;;;;;;-5;86.43945;97012.36;;;;
2019/12/30 01:40:23;;;;;;;24;13.2;;;;;;;-5.03;86.32031;96999.8;;;;
2019/12/30 01:41:25;;;;;;;24;13.2;;;;;;;-5.03;86.32031;96999.8;;;;
2019/12/30 01:42:26;;;;;;;24;13.2;;;;;;;-5.03;86.32031;96999.8;;;;
2019/12/30 01:44:29;;;;;;;24;13.2;;;;;;;-5.03;86.32031;96999.8;;;;
2019/12/30 01:45:29;;;;;;;24;13.2;;;;;;;-5.03;86.32031;96999.8;;;;
2019/12/30 01:46:30;;;;;;;24;13.2;;;;;;;-5.03;86.32031;96999.8;;;;
2019/12/30 01:47:31;;;;;;;24;13.2;;;;;;;-5.03;86.32031;96999.8;;;;
2019/12/30 01:48:31;;;;;;;24;13.2;;;;;;;-5.03;86.32031;96999.8;;;;
2019/12/30 01:49:34;;;;;;;24;13.2;;;;;;;-5.03;86.32031;96999.8;;;;
2019/12/30 01:50:34;;;;;;;24;13.2;;;;;;;-5.03;86.32031;96999.8;;;;
2019/12/30 01:51:35;;;;;;;25.55;13.75;;;;;;;-5.05;86.34766;97001.67;;;;
2019/12/30 01:52:36;;;;;;;25.55;13.75;;;;;;;-5.05;86.34766;97001.67;;;;
2019/12/30 01:53:36;;;;;;;25.55;13.75;;;;;;;-5.05;86.34766;97001.67;;;;
2019/12/30 01:54:37;;;;;;;25.55;13.75;;;;;;;-5.05;86.34766;97001.67;;;;
2019/12/30 01:55:58;;;;;;;25.55;13.75;;;;;;;-5.05;86.34766;97001.67;;;;
2019/12/30 01:57:06;;;;;;;25.55;13.75;;;;;;;-5.05;86.34766;97001.67;;;;
2019/12/30 01:58:46;;;;;;;25.55;13.75;;;;;;;-5.05;86.34766;97001.67;;;;
2019/12/30 01:59:50;;;;;;;25.55;13.75;;;;;;;-5.05;86.34766;97001.67;;;;
2019/12/30 02:01:04;;;;;;;25.55;13.75;;;;;;;-5.05;86.34766;97001.67;;;;
2019/12/30 02:07:19;;;;;;;27.9;14.15;;;;;;;-5.08;86.29004;96999.72;;;;
2019/12/30 02:08:20;;;;;;;27.9;14.15;;;;;;;-5.08;86.29004;96999.72;;;;
2019/12/30 02:09:20;;;;;;;27.9;14.15;;;;;;;-5.08;86.29004;96999.72;;;;
2019/12/30 02:10:21;;;;;;;27.9;14.15;;;;;;;-5.08;86.29004;96999.72;;;;
2019/12/30 02:11:21;;;;;;;27.9;14.15;;;;;;;-5.08;86.29004;96999.72;;;;
2019/12/30 02:12:22;;;;;;;27.9;14.15;;;;;;;-5.08;86.29004;96999.72;;;;
2019/12/30 02:13:22;;;;;;;27.9;14.15;;;;;;;-5.08;86.29004;96999.72;;;;
2019/12/30 02:14:22;;;;;;;27.9;14.15;;;;;;;-5.08;86.29004;96999.72;;;;
2019/12/30 02:15:23;;;;;;;27.9;14.15;;;;;;;-5.08;86.29004;96999.72;;;;
2019/12/30 02:16:23;;;;;;;27.9;14.15;;;;;;;-5.08;86.29004;96999.72;;;;
2019/12/30 02:17:24;;;;;;;27.9;14.15;;;;;;;-5.08;86.29004;96999.72;;;;
2019/12/30 02:18:24;;;;;;;27.9;14.15;;;;;;;-5.08;86.29004;96999.72;;;;
2019/12/30 02:19:25;;;;;;;27.9;14.15;;;;;;;-5.08;86.29004;96999.72;;;;
2019/12/30 02:20:25;;;;;;;27.9;14.15;;;;;;;-5.08;86.29004;96999.72;;;;
2019/12/30 02:21:27;;;;;;;27.9;14.15;;;;;;;-5.08;86.29004;96999.72;;;;
2019/12/30 02:22:27;;;;;;;27.9;14.15;;;;;;;-5.08;86.29004;96999.72;;;;
2019/12/30 02:23:27;;;;;;;22.5;12;;;;;;;-5.15;86.03027;96998.85;;;;
2019/12/30 02:24:28;;;;;;;22.5;12;;;;;;;-5.15;86.03027;96998.85;;;;
2019/12/30 02:25:28;;;;;;;22.5;12;;;;;;;-5.15;86.03027;96998.85;;;;
2019/12/30 02:26:29;;;;;;;22.5;12;;;;;;;-5.15;86.03027;96998.85;;;;
2019/12/30 02:27:29;;;;;;;22.5;12;;;;;;;-5.15;86.03027;96998.85;;;;
2019/12/30 02:28:30;;;;;;;22.5;12;;;;;;;-5.15;86.03027;96998.85;;;;
2019/12/30 02:29:30;;;;;;;22.5;12;;;;;;;-5.15;86.03027;96998.85;;;;
2019/12/30 02:30:31;;;;;;;22.5;12;;;;;;;-5.15;86.03027;96998.85;;;;
2019/12/30 02:31:31;;;;;;;22.5;12;;;;;;;-5.15;86.03027;96998.85;;;;
2019/12/30 02:32:32;;;;;;;22.5;12;;;;;;;-5.15;86.03027;96998.85;;;;
2019/12/30 02:33:32;;;;;;;27.95;14.7;;;;;;;-5.28;86.80469;96979.94;;;;
2019/12/30 02:34:33;;;;;;;27.95;14.7;;;;;;;-5.28;86.80469;96979.94;;;;
2019/12/30 02:35:33;;;;;;;27.95;14.7;;;;;;;-5.28;86.80469;96979.94;;;;
2019/12/30 02:36:34;;;;;;;27.95;14.7;;;;;;;-5.28;86.80469;96979.94;;;;
2019/12/30 02:37:34;;;;;;;27.95;14.7;;;;;;;-5.28;86.80469;96979.94;;;;
2019/12/30 02:38:35;;;;;;;27.95;14.7;;;;;;;-5.28;86.80469;96979.94;;;;
2019/12/30 02:39:35;;;;;;;27.95;14.7;;;;;;;-5.28;86.80469;96979.94;;;;
2019/12/30 02:40:36;;;;;;;27.95;14.7;;;;;;;-5.28;86.80469;96979.94;;;;
2019/12/30 02:41:36;;;;;;;27.95;14.7;;;;;;;-5.28;86.80469;96979.94;;;;
2019/12/30 02:42:37;;;;;;;27.95;14.7;;;;;;;-5.28;86.80469;96979.94;;;;
2019/12/30 02:43:37;;;;;;;27.95;14.7;;;;;;;-5.28;86.80469;96979.94;;;;
2019/12/30 02:44:38;;;;;;;21.65;13.05;;;;;;;-5.27;86.90918;96979.41;;;;
2019/12/30 02:45:38;;;;;;;21.65;13.05;;;;;;;-5.27;86.90918;96979.41;;;;
2019/12/30 02:46:39;;;;;;;21.65;13.05;;;;;;;-5.27;86.90918;96979.41;;;;
2019/12/30 02:47:39;;;;;;;21.65;13.05;;;;;;;-5.27;86.90918;96979.41;;;;
2019/12/30 02:48:39;;;;;;;21.65;13.05;;;;;;;-5.27;86.90918;96979.41;;;;
2019/12/30 02:49:40;;;;;;;21.65;13.05;;;;;;;-5.27;86.90918;96979.41;;;;
2019/12/30 02:50:40;;;;;;;21.65;13.05;;;;;;;-5.27;86.90918;96979.41;;;;
2019/12/30 02:51:41;;;;;;;21.65;13.05;;;;;;;-5.27;86.90918;96979.41;;;;
2019/12/30 02:52:41;;;;;;;21.65;13.05;;;;;;;-5.27;86.90918;96979.41;;;;
2019/12/30 02:53:42;;;;;;;21.65;13.05;;;;;;;-5.27;86.90918;96979.41;;;;
2019/12/30 02:54:42;;;;;;;21.8;12.3;;;;;;;-5.29;86.81348;96981.79;;;;
2019/12/30 02:55:43;;;;;;;21.8;12.3;;;;;;;-5.29;86.81348;96981.79;;;;
2019/12/30 02:56:43;;;;;;;21.8;12.3;;;;;;;-5.29;86.81348;96981.79;;;;
2019/12/30 02:57:44;;;;;;;21.8;12.3;;;;;;;-5.29;86.81348;96981.79;;;;
2019/12/30 02:58:44;;;;;;;21.8;12.3;;;;;;;-5.29;86.81348;96981.79;;;;
2019/12/30 02:59:45;;;;;;;21.8;12.3;;;;;;;-5.29;86.81348;96981.79;;;;
2019/12/30 03:00:45;;;;;;;21.8;12.3;;;;;;;-5.29;86.81348;96981.79;;;;
2019/12/30 03:01:46;;;;;;;21.8;12.3;;;;;;;-5.29;86.81348;96981.79;;;;
2019/12/30 03:02:46;;;;;;;21.8;12.3;;;;;;;-5.29;86.81348;96981.79;;;;
2019/12/30 03:03:47;;;;;;;21.8;12.3;;;;;;;-5.29;86.81348;96981.79;;;;
2019/12/30 03:04:47;;;;;;;21.8;12.3;;;;;;;-5.29;86.81348;96981.79;;;;
2019/12/30 03:05:48;;;;;;;23.35;13.2;;;;;;;-5.35;86.88184;96982.17;;;;
2019/12/30 03:06:48;;;;;;;23.35;13.2;;;;;;;-5.35;86.88184;96982.17;;;;
2019/12/30 03:07:48;;;;;;;23.35;13.2;;;;;;;-5.35;86.88184;96982.17;;;;
2019/12/30 03:08:49;;;;;;;23.35;13.2;;;;;;;-5.35;86.88184;96982.17;;;;
2019/12/30 03:09:49;;;;;;;23.35;13.2;;;;;;;-5.35;86.88184;96982.17;;;;
2019/12/30 03:10:50;;;;;;;23.35;13.2;;;;;;;-5.35;86.88184;96982.17;;;;
2019/12/30 03:11:50;;;;;;;23.35;13.2;;;;;;;-5.35;86.88184;96982.17;;;;
2019/12/30 03:12:51;;;;;;;23.35;13.2;;;;;;;-5.35;86.88184;96982.17;;;;
2019/12/30 03:13:51;;;;;;;23.35;13.2;;;;;;;-5.35;86.88184;96982.17;;;;
2019/12/30 03:14:52;;;;;;;23.35;13.2;;;;;;;-5.35;86.88184;96982.17;;;;
2019/12/30 03:15:52;;;;;;;23.6;13.35;;;;;;;-5.38;87.02148;96952.04;;;;
2019/12/30 03:16:53;;;;;;;23.6;13.35;;;;;;;-5.38;87.02148;96952.04;;;;
2019/12/30 03:17:53;;;;;;;23.6;13.35;;;;;;;-5.38;87.02148;96952.04;;;;
2019/12/30 03:18:53;;;;;;;23.6;13.35;;;;;;;-5.38;87.02148;96952.04;;;;
2019/12/30 03:19:54;;;;;;;23.6;13.35;;;;;;;-5.38;87.02148;96952.04;;;;
2019/12/30 03:20:54;;;;;;;23.6;13.35;;;;;;;-5.38;87.02148;96952.04;;;;
2019/12/30 03:21:55;;;;;;;23.6;13.35;;;;;;;-5.38;87.02148;96952.04;;;;
2019/12/30 03:22:55;;;;;;;23.6;13.35;;;;;;;-5.38;87.02148;96952.04;;;;
2019/12/30 03:23:56;;;;;;;23.6;13.35;;;;;;;-5.38;87.02148;96952.04;;;;
2019/12/30 03:24:56;;;;;;;23.6;13.35;;;;;;;-5.38;87.02148;96952.04;;;;
2019/12/30 03:25:57;;;;;;;23.6;13.35;;;;;;;-5.38;87.02148;96952.04;;;;
2019/12/30 03:26:57;;;;;;;21.65;12.3;;;;;;;-5.35;87.14063;96940.03;;;;
2019/12/30 03:27:58;;;;;;;21.65;12.3;;;;;;;-5.35;87.14063;96940.03;;;;
2019/12/30 03:28:58;;;;;;;21.65;12.3;;;;;;;-5.35;87.14063;96940.03;;;;
2019/12/30 03:29:59;;;;;;;21.65;12.3;;;;;;;-5.35;87.14063;96940.03;;;;
2019/12/30 03:30:59;;;;;;;21.65;12.3;;;;;;;-5.35;87.14063;96940.03;;;;
2019/12/30 03:32:00;;;;;;;21.65;12.3;;;;;;;-5.35;87.14063;96940.03;;;;
2019/12/30 03:33:00;;;;;;;21.65;12.3;;;;;;;-5.35;87.14063;96940.03;;;;
2019/12/30 03:34:01;;;;;;;21.65;12.3;;;;;;;-5.35;87.14063;96940.03;;;;
2019/12/30 03:35:01;;;;;;;21.65;12.3;;;;;;;-5.35;87.14063;96940.03;;;;
2019/12/30 03:36:02;;;;;;;21.65;12.3;;;;;;;-5.35;87.14063;96940.03;;;;
2019/12/30 03:37:02;;;;;;;21.65;12.3;;;;;;;-5.35;87.14063;96940.03;;;;
2019/12/30 03:38:03;;;;;;;21.65;12.3;;;;;;;-5.35;87.14063;96940.03;;;;
2019/12/30 03:39:03;;;;;;;21.65;12.3;;;;;;;-5.35;87.14063;96940.03;;;;
2019/12/30 03:40:05;;;;;;;21.65;12.3;;;;;;;-5.35;87.14063;96940.03;;;;
2019/12/30 03:41:05;;;;;;;21.65;12.3;;;;;;;-5.35;87.14063;96940.03;;;;
2019/12/30 03:42:12;;;;;;;21.65;12.3;;;;;;;-5.35;87.14063;96940.03;;;;
2019/12/30 03:43:14;;;;;;;21.65;12.3;;;;;;;-5.35;87.14063;96940.03;;;;
2019/12/30 03:44:15;;;;;;;21.65;12.3;;;;;;;-5.35;87.14063;96940.03;;;;
2019/12/30 03:45:16;;;;;;;21.65;12.3;;;;;;;-5.35;87.14063;96940.03;;;;
2019/12/30 03:46:17;;;;;;;21.65;12.3;;;;;;;-5.35;87.14063;96940.03;;;;
2019/12/30 03:47:27;;;;;;;21.65;12.3;;;;;;;-5.35;87.14063;96940.03;;;;
2019/12/30 03:48:38;;;;;;;18.45;11;;;;;;;-5.25;86.6875;96931.97;;;;
2019/12/30 03:49:41;;;;;;;18.45;11;;;;;;;-5.25;86.6875;96931.97;;;;
2019/12/30 03:50:45;;;;;;;18.45;11;;;;;;;-5.25;86.6875;96931.97;;;;
2019/12/30 03:51:46;;;;;;;18.45;11;;;;;;;-5.25;86.6875;96931.97;;;;
2019/12/30 03:52:52;;;;;;;18.45;11;;;;;;;-5.25;86.6875;96931.97;;;;
2019/12/30 03:54:04;;;;;;;18.45;11;;;;;;;-5.25;86.6875;96931.97;;;;
2019/12/30 03:55:06;;;;;;;18.45;11;;;;;;;-5.25;86.6875;96931.97;;;;
2019/12/30 03:56:11;;;;;;;18.45;11;;;;;;;-5.25;86.6875;96931.97;;;;
2019/12/30 03:57:13;;;;;;;18.45;11;;;;;;;-5.25;86.6875;96931.97;;;;
2019/12/30 03:58:14;;;;;;;18.45;11;;;;;;;-5.25;86.6875;96931.97;;;;
2019/12/30 03:59:17;;;;;;;17.7;10.55;;;;;;;-5.32;86.7334;96935.02;;;;
2019/12/30 04:00:25;;;;;;;17.7;10.55;;;;;;;-5.32;86.7334;96935.02;;;;
2019/12/30 04:01:26;;;;;;;17.7;10.55;;;;;;;-5.32;86.7334;96935.02;;;;
2019/12/30 04:02:46;;;;;;;17.7;10.55;;;;;;;-5.32;86.7334;96935.02;;;;
2019/12/30 04:03:48;;;;;;;17.7;10.55;;;;;;;-5.32;86.7334;96935.02;;;;
2019/12/30 04:04:50;;;;;;;17.7;10.55;;;;;;;-5.32;86.7334;96935.02;;;;
2019/12/30 04:05:52;;;;;;;17.7;10.55;;;;;;;-5.32;86.7334;96935.02;;;;
2019/12/30 04:06:53;;;;;;;17.7;10.55;;;;;;;-5.32;86.7334;96935.02;;;;
2019/12/30 04:07:54;;;;;;;17.7;10.55;;;;;;;-5.32;86.7334;96935.02;;;;
2019/12/30 04:08:57;;;;;;;17.85;10.55;;;;;;;-5.4;86.69727;96924.59;;;;
2019/12/30 04:09:58;;;;;;;17.85;10.55;;;;;;;-5.4;86.69727;96924.59;;;;
2019/12/30 04:10:58;;;;;;;17.85;10.55;;;;;;;-5.4;86.69727;96924.59;;;;
2019/12/30 04:11:59;;;;;;;17.85;10.55;;;;;;;-5.4;86.69727;96924.59;;;;
2019/12/30 04:12:59;;;;;;;17.85;10.55;;;;;;;-5.4;86.69727;96924.59;;;;
2019/12/30 04:14:00;;;;;;;17.85;10.55;;;;;;;-5.4;86.69727;96924.59;;;;
2019/12/30 04:15:05;;;;;;;17.85;10.55;;;;;;;-5.4;86.69727;96924.59;;;;
2019/12/30 04:16:08;;;;;;;17.85;10.55;;;;;;;-5.4;86.69727;96924.59;;;;
2019/12/30 04:17:43;;;;;;;17.85;10.55;;;;;;;-5.4;86.69727;96924.59;;;;
2019/12/30 04:18:44;;;;;;;17.85;10.55;;;;;;;-5.4;86.69727;96924.59;;;;
2019/12/30 04:19:50;;;;;;;17;10.75;;;;;;;-5.47;86.82715;96932.51;;;;
2019/12/30 04:20:56;;;;;;;17;10.75;;;;;;;-5.47;86.82715;96932.51;;;;
2019/12/30 04:27:20;;;;;;;17;10.75;;;;;;;-5.47;86.82715;96932.51;;;;
2019/12/30 04:28:31;;;;;;;17;10.75;;;;;;;-5.47;86.82715;96932.51;;;;
2019/12/30 04:29:39;;;;;;;17;10.75;;;;;;;-5.47;86.82715;96932.51;;;;
2019/12/30 04:31:51;;;;;;;17.2;10.3;;;;;;;-5.51;86.87891;96932.33;;;;
2019/12/30 04:32:55;;;;;;;17.2;10.3;;;;;;;-5.51;86.87891;96932.33;;;;
2019/12/30 04:33:56;;;;;;;17.2;10.3;;;;;;;-5.51;86.87891;96932.33;;;;
2019/12/30 04:34:57;;;;;;;17.2;10.3;;;;;;;-5.51;86.87891;96932.33;;;;
2019/12/30 04:35:58;;;;;;;17.2;10.3;;;;;;;-5.51;86.87891;96932.33;;;;
2019/12/30 04:36:58;;;;;;;17.2;10.3;;;;;;;-5.51;86.87891;96932.33;;;;
2019/12/30 04:37:59;;;;;;;17.2;10.3;;;;;;;-5.51;86.87891;96932.33;;;;
2019/12/30 04:38:59;;;;;;;17.2;10.3;;;;;;;-5.51;86.87891;96932.33;;;;
2019/12/30 04:40:00;;;;;;;17.2;10.3;;;;;;;-5.51;86.87891;96932.33;;;;
2019/12/30 04:41:00;;;;;;;17.5;10.35;;;;;;;-5.56;86.83105;96921.26;;;;
2019/12/30 04:42:01;;;;;;;17.5;10.35;;;;;;;-5.56;86.83105;96921.26;;;;
2019/12/30 04:43:01;;;;;;;17.5;10.35;;;;;;;-5.56;86.83105;96921.26;;;;
2019/12/30 04:44:02;;;;;;;17.5;10.35;;;;;;;-5.56;86.83105;96921.26;;;;
2019/12/30 04:45:02;;;;;;;17.5;10.35;;;;;;;-5.56;86.83105;96921.26;;;;
2019/12/30 04:46:03;;;;;;;17.5;10.35;;;;;;;-5.56;86.83105;96921.26;;;;
2019/12/30 04:47:03;;;;;;;17.5;10.35;;;;;;;-5.56;86.83105;96921.26;;;;
2019/12/30 04:48:04;;;;;;;17.5;10.35;;;;;;;-5.56;86.83105;96921.26;;;;
2019/12/30 04:49:04;;;;;;;17.5;10.35;;;;;;;-5.56;86.83105;96921.26;;;;
2019/12/30 04:50:05;;;;;;;17.5;10.35;;;;;;;-5.56;86.83105;96921.26;;;;
2019/12/30 04:51:05;;;;;;;17.5;10.35;;;;;;;-5.56;86.83105;96921.26;;;;
2019/12/30 04:52:06;;;;;;;20.35;10.75;;;;;;;-5.62;86.91992;96932.59;;;;
2019/12/30 04:53:06;;;;;;;20.35;10.75;;;;;;;-5.62;86.91992;96932.59;;;;
2019/12/30 04:54:07;;;;;;;20.35;10.75;;;;;;;-5.62;86.91992;96932.59;;;;
2019/12/30 04:55:07;;;;;;;20.35;10.75;;;;;;;-5.62;86.91992;96932.59;;;;
2019/12/30 04:56:08;;;;;;;20.35;10.75;;;;;;;-5.62;86.91992;96932.59;;;;
2019/12/30 04:57:08;;;;;;;20.35;10.75;;;;;;;-5.62;86.91992;96932.59;;;;
2019/12/30 04:58:09;;;;;;;20.35;10.75;;;;;;;-5.62;86.91992;96932.59;;;;
2019/12/30 04:59:09;;;;;;;20.35;10.75;;;;;;;-5.62;86.91992;96932.59;;;;
2019/12/30 05:00:09;;;;;;;20.35;10.75;;;;;;;-5.62;86.91992;96932.59;;;;
2019/12/30 05:01:10;;;;;;;20.35;10.75;;;;;;;-5.62;86.91992;96932.59;;;;
2019/12/30 05:02:11;;;;;;;15.85;10;;;;;;;-5.66;86.97363;96931.09;;;;
2019/12/30 05:03:11;;;;;;;15.85;10;;;;;;;-5.66;86.97363;96931.09;;;;
2019/12/30 05:04:12;;;;;;;15.85;10;;;;;;;-5.66;86.97363;96931.09;;;;
2019/12/30 05:05:12;;;;;;;15.85;10;;;;;;;-5.66;86.97363;96931.09;;;;
2019/12/30 05:06:13;;;;;;;15.85;10;;;;;;;-5.66;86.97363;96931.09;;;;
2019/12/30 05:07:13;;;;;;;15.85;10;;;;;;;-5.66;86.97363;96931.09;;;;
2019/12/30 05:08:14;;;;;;;15.85;10;;;;;;;-5.66;86.97363;96931.09;;;;
2019/12/30 05:09:14;;;;;;;15.85;10;;;;;;;-5.66;86.97363;96931.09;;;;
2019/12/30 05:10:15;;;;;;;15.85;10;;;;;;;-5.66;86.97363;96931.09;;;;
2019/12/30 05:11:15;;;;;;;15.85;10;;;;;;;-5.66;86.97363;96931.09;;;;
2019/12/30 05:12:16;;;;;;;15.85;10;;;;;;;-5.66;86.97363;96931.09;;;;
2019/12/30 05:13:16;;;;;;;17.65;10.45;;;;;;;-5.68;86.99023;96939.11;;;;
2019/12/30 05:14:17;;;;;;;17.65;10.45;;;;;;;-5.68;86.99023;96939.11;;;;
2019/12/30 05:15:17;;;;;;;17.65;10.45;;;;;;;-5.68;86.99023;96939.11;;;;
2019/12/30 05:16:18;;;;;;;17.65;10.45;;;;;;;-5.68;86.99023;96939.11;;;;
2019/12/30 05:17:18;;;;;;;17.65;10.45;;;;;;;-5.68;86.99023;96939.11;;;;
2019/12/30 05:18:19;;;;;;;17.65;10.45;;;;;;;-5.68;86.99023;96939.11;;;;
2019/12/30 05:19:19;;;;;;;17.65;10.45;;;;;;;-5.68;86.99023;96939.11;;;;
2019/12/30 05:20:20;;;;;;;17.65;10.45;;;;;;;-5.68;86.99023;96939.11;;;;
2019/12/30 05:21:20;;;;;;;17.65;10.45;;;;;;;-5.68;86.99023;96939.11;;;;
2019/12/30 05:22:21;;;;;;;17.65;10.45;;;;;;;-5.68;86.99023;96939.11;;;;
2019/12/30 05:23:21;;;;;;;16;9.85;;;;;;;-5.74;87.0791;96923.32;;;;
2019/12/30 05:24:22;;;;;;;16;9.85;;;;;;;-5.74;87.0791;96923.32;;;;
2019/12/30 05:25:22;;;;;;;16;9.85;;;;;;;-5.74;87.0791;96923.32;;;;
2019/12/30 05:26:23;;;;;;;16;9.85;;;;;;;-5.74;87.0791;96923.32;;;;
2019/12/30 05:27:23;;;;;;;16;9.85;;;;;;;-5.74;87.0791;96923.32;;;;
2019/12/30 05:28:24;;;;;;;16;9.85;;;;;;;-5.74;87.0791;96923.32;;;;
2019/12/30 05:29:24;;;;;;;16;9.85;;;;;;;-5.74;87.0791;96923.32;;;;
2019/12/30 05:30:24;;;;;;;16;9.85;;;;;;;-5.74;87.0791;96923.32;;;;
2019/12/30 05:31:25;;;;;;;16;9.85;;;;;;;-5.74;87.0791;96923.32;;;;
2019/12/30 05:32:25;;;;;;;16;9.85;;;;;;;-5.74;87.0791;96923.32;;;;
2019/12/30 05:33:26;;;;;;;16;9.85;;;;;;;-5.74;87.0791;96923.32;;;;
2019/12/30 05:34:26;;;;;;;16.05;9.550001;;;;;;;-5.73;87.3457;96923.25;;;;
2019/12/30 05:35:27;;;;;;;16.05;9.550001;;;;;;;-5.73;87.3457;96923.25;;;;
2019/12/30 05:36:27;;;;;;;16.05;9.550001;;;;;;;-5.73;87.3457;96923.25;;;;
2019/12/30 05:37:28;;;;;;;16.05;9.550001;;;;;;;-5.73;87.3457;96923.25;;;;
2019/12/30 05:38:28;;;;;;;16.05;9.550001;;;;;;;-5.73;87.3457;96923.25;;;;
2019/12/30 05:39:29;;;;;;;16.05;9.550001;;;;;;;-5.73;87.3457;96923.25;;;;
2019/12/30 05:40:29;;;;;;;16.05;9.550001;;;;;;;-5.73;87.3457;96923.25;;;;
2019/12/30 05:41:30;;;;;;;16.05;9.550001;;;;;;;-5.73;87.3457;96923.25;;;;
2019/12/30 05:42:30;;;;;;;16.05;9.550001;;;;;;;-5.73;87.3457;96923.25;;;;
2019/12/30 05:43:31;;;;;;;16.05;9.550001;;;;;;;-5.73;87.3457;96923.25;;;;
2019/12/30 05:44:31;;;;;;;15.3;9.35;;;;;;;-5.71;87.34082;96921.34;;;;
2019/12/30 05:45:32;;;;;;;15.3;9.35;;;;;;;-5.71;87.34082;96921.34;;;;
2019/12/30 05:46:32;;;;;;;15.3;9.35;;;;;;;-5.71;87.34082;96921.34;;;;
2019/12/30 05:47:33;;;;;;;15.3;9.35;;;;;;;-5.71;87.34082;96921.34;;;;
2019/12/30 05:48:33;;;;;;;15.3;9.35;;;;;;;-5.71;87.34082;96921.34;;;;
2019/12/30 05:49:34;;;;;;;15.3;9.35;;;;;;;-5.71;87.34082;96921.34;;;;
2019/12/30 05:50:34;;;;;;;15.3;9.35;;;;;;;-5.71;87.34082;96921.34;;;;
2019/12/30 05:51:35;;;;;;;15.3;9.35;;;;;;;-5.71;87.34082;96921.34;;;;
2019/12/30 05:52:35;;;;;;;15.3;9.35;;;;;;;-5.71;87.34082;96921.34;;;;
2019/12/30 05:53:35;;;;;;;15.3;9.35;;;;;;;-5.71;87.34082;96921.34;;;;
2019/12/30 05:54:36;;;;;;;15.3;9.35;;;;;;;-5.71;87.34082;96921.34;;;;
2019/12/30 05:55:37;;;;;;;15.6;9.6;;;;;;;-5.68;87.47168;96926.39;;;;
2019/12/30 05:56:37;;;;;;;15.6;9.6;;;;;;;-5.68;87.47168;96926.39;;;;
2019/12/30 05:57:38;;;;;;;15.6;9.6;;;;;;;-5.68;87.47168;96926.39;;;;
2019/12/30 05:58:38;;;;;;;15.6;9.6;;;;;;;-5.68;87.47168;96926.39;;;;
2019/12/30 05:59:39;;;;;;;15.6;9.6;;;;;;;-5.68;87.47168;96926.39;;;;
2019/12/30 06:00:39;;;;;;;15.6;9.6;;;;;;;-5.68;87.47168;96926.39;;;;
2019/12/30 06:01:39;;;;;;;15.6;9.6;;;;;;;-5.68;87.47168;96926.39;;;;